TimeMDT,TemperatureF,Dew PointF,Humidity,Sea Level PressureIn,VisibilityMPH,Wind Direction,Wind SpeedMPH,Gust SpeedMPH,PrecipitationIn,Events,Conditions,WindDirDegrees,DateUTC
12:15 AM,36.5,26.6,67,30.35,10.0,NNW,11.5,17.3,N/A,,Scattered Clouds,340,2012-10-04 06:15:00
12:35 AM,36.0,26.6,69,30.36,10.0,North,10.4,16.1,N/A,,Clear,350,2012-10-04 06:35:00
12:55 AM,35.6,26.6,70,30.35,10.0,North,11.5,-,N/A,,Clear,350,2012-10-04 06:55:00
1:15 AM,35.8,26.6,69,30.35,10.0,NNW,12.7,17.3,N/A,,Scattered Clouds,330,2012-10-04 07:15:00
1:35 AM,36.1,27.0,69,30.36,10.0,NNW,11.5,18.4,N/A,,Mostly Cloudy,330,2012-10-04 07:35:00
1:55 AM,36.7,27.0,68,30.36,10.0,NNW,15.0,-,N/A,,Overcast,340,2012-10-04 07:55:00
2:15 AM,35.2,26.4,70,30.37,10.0,NNW,10.4,-,N/A,,Scattered Clouds,340,2012-10-04 08:15:00
2:35 AM,36.1,26.6,68,30.37,10.0,NNW,8.1,16.1,N/A,,Mostly Cloudy,330,2012-10-04 08:35:00
2:55 AM,36.9,26.2,65,30.36,10.0,NW,9.2,-,N/A,,Overcast,320,2012-10-04 08:55:00
3:15 AM,37.0,26.2,65,30.36,10.0,NW,15.0,19.6,N/A,,Overcast,320,2012-10-04 09:15:00
3:35 AM,37.0,26.2,65,30.36,10.0,NNW,12.7,-,N/A,,Overcast,330,2012-10-04 09:35:00
3:55 AM,37.4,26.2,64,30.36,10.0,NW,12.7,16.1,N/A,,Overcast,320,2012-10-04 09:55:00
4:15 AM,37.4,25.9,63,30.36,10.0,NNW,11.5,16.1,N/A,,Overcast,330,2012-10-04 10:15:00
4:35 AM,37.4,25.3,62,30.36,10.0,NNW,17.3,21.9,N/A,,Overcast,340,2012-10-04 10:35:00
4:55 AM,36.9,25.2,63,30.36,10.0,North,16.1,21.9,N/A,,Overcast,350,2012-10-04 10:55:00
5:15 AM,36.5,24.8,63,30.36,10.0,North,19.6,-,N/A,,Overcast,350,2012-10-04 11:15:00
5:35 AM,35.6,25.5,67,30.35,10.0,North,17.3,23.0,N/A,,Overcast,350,2012-10-04 11:35:00
5:55 AM,34.3,25.7,71,30.35,10.0,NNW,15.0,-,N/A,,Scattered Clouds,340,2012-10-04 11:55:00
6:15 AM,32.9,25.3,74,30.37,10.0,NW,5.8,-,N/A,,Scattered Clouds,320,2012-10-04 12:15:00
6:35 AM,31.8,24.8,75,30.37,10.0,NNW,3.5,-,N/A,,Clear,330,2012-10-04 12:35:00
6:55 AM,31.6,24.8,76,30.37,10.0,NW,4.6,-,N/A,,Clear,320,2012-10-04 12:55:00
7:15 AM,32.0,25.0,75,30.37,10.0,North,4.6,-,N/A,,Clear,350,2012-10-04 13:15:00
7:35 AM,33.4,26.1,74,30.37,10.0,North,6.9,-,N/A,,Clear,360,2012-10-04 13:35:00
7:55 AM,35.6,26.2,69,30.37,10.0,North,8.1,-,N/A,,Clear,10,2012-10-04 13:55:00
8:15 AM,36.9,26.1,65,30.37,10.0,North,6.9,-,N/A,,Scattered Clouds,10,2012-10-04 14:15:00
8:55 AM,38.3,25.3,60,30.38,10.0,North,6.9,-,N/A,,Overcast,350,2012-10-04 14:55:00
9:15 AM,38.3,25.2,59,30.38,10.0,ENE,6.9,-,N/A,,Overcast,60,2012-10-04 15:15:00
9:35 AM,38.3,24.4,57,30.38,10.0,NNE,5.8,-,N/A,,Overcast,20,2012-10-04 15:35:00
9:55 AM,39.2,23.9,54,30.38,10.0,NE,8.1,-,N/A,,Overcast,40,2012-10-04 15:55:00
10:15 AM,39.9,24.3,54,30.39,10.0,NE,8.1,-,N/A,,Overcast,50,2012-10-04 16:15:00
10:35 AM,40.1,24.3,53,30.38,10.0,ENE,6.9,-,N/A,,Overcast,60,2012-10-04 16:35:00
10:55 AM,41.0,24.3,51,30.37,10.0,ENE,6.9,-,N/A,,Overcast,70,2012-10-04 16:55:00
11:15 AM,41.2,23.9,50,30.37,10.0,NE,8.1,-,N/A,,Overcast,40,2012-10-04 17:15:00
11:35 AM,41.5,23.4,49,30.37,10.0,North,5.8,-,N/A,,Overcast,10,2012-10-04 17:35:00
11:55 AM,42.1,23.0,47,30.37,10.0,ENE,6.9,-,N/A,,Overcast,60,2012-10-04 17:55:00
12:15 PM,42.8,22.5,45,30.36,10.0,NE,5.8,-,N/A,,Overcast,40,2012-10-04 18:15:00
12:35 PM,42.8,22.5,45,30.35,10.0,ENE,4.6,-,N/A,,Overcast,70,2012-10-04 18:35:00
12:55 PM,44.6,22.1,41,30.34,10.0,East,6.9,-,N/A,,Overcast,80,2012-10-04 18:55:00
1:15 PM,47.3,21.4,36,30.33,10.0,North,5.8,-,N/A,,Overcast,10,2012-10-04 19:15:00
1:35 PM,46.8,20.8,36,30.32,10.0,NNW,4.6,-,N/A,,Overcast,340,2012-10-04 19:35:00
1:55 PM,46.9,20.3,35,30.30,10.0,Calm,Calm,-,N/A,,Overcast,0,2012-10-04 19:55:00
2:15 PM,47.7,20.5,34,30.29,10.0,Calm,Calm,-,N/A,,Scattered Clouds,0,2012-10-04 20:15:00
2:35 PM,49.5,21.2,33,30.29,10.0,East,3.5,-,N/A,,Clear,100,2012-10-04 20:35:00
2:55 PM,50.0,21.4,32,30.28,10.0,NNE,3.5,-,N/A,,Clear,20,2012-10-04 20:55:00
3:15 PM,49.8,21.6,33,30.28,10.0,ENE,4.6,-,N/A,,Clear,70,2012-10-04 21:15:00
3:35 PM,50.0,21.4,32,30.28,10.0,East,6.9,-,N/A,,Clear,100,2012-10-04 21:35:00
3:55 PM,50.5,21.7,32,30.27,10.0,East,8.1,-,N/A,,Clear,100,2012-10-04 21:55:00
4:15 PM,50.7,22.1,33,30.27,10.0,East,5.8,-,N/A,,Clear,90,2012-10-04 22:15:00
4:35 PM,50.2,21.9,33,30.26,10.0,Calm,Calm,-,N/A,,Clear,0,2012-10-04 22:35:00
4:55 PM,49.5,22.1,34,30.26,10.0,SSE,6.9,-,N/A,,Clear,160,2012-10-04 22:55:00
5:15 PM,49.1,22.1,35,30.25,10.0,SE,3.5,-,N/A,,Clear,130,2012-10-04 23:15:00
5:35 PM,47.7,22.5,37,30.25,10.0,Calm,Calm,-,N/A,,Clear,0,2012-10-04 23:35:00
5:55 PM,47.8,22.5,37,30.25,10.0,ESE,4.6,-,N/A,,Clear,120,2012-10-04 23:55:00
6:15 PM,45.5,22.1,40,30.25,10.0,ENE,5.8,-,N/A,,Clear,70,2012-10-05 00:15:00
6:35 PM,42.8,22.8,45,30.26,10.0,NE,4.6,-,N/A,,Clear,50,2012-10-05 00:35:00
6:55 PM,40.5,22.1,48,30.26,10.0,NE,6.9,-,N/A,,Clear,40,2012-10-05 00:55:00
7:15 PM,38.5,22.6,53,30.26,10.0,NE,6.9,-,N/A,,Clear,50,2012-10-05 01:15:00
7:35 PM,37.0,22.6,56,30.26,10.0,NE,6.9,-,N/A,,Clear,50,2012-10-05 01:35:00
8:15 PM,36.7,23.0,58,30.26,10.0,NE,6.9,-,N/A,,Clear,50,2012-10-05 02:15:00
8:35 PM,37.8,23.5,57,30.26,10.0,ENE,9.2,-,N/A,,Clear,60,2012-10-05 02:35:00
8:55 PM,38.5,23.0,54,30.27,10.0,ENE,8.1,-,N/A,,Clear,60,2012-10-05 02:55:00
9:15 PM,37.6,23.0,56,30.26,10.0,ENE,8.1,-,N/A,,Clear,60,2012-10-05 03:15:00
9:35 PM,36.7,22.8,57,30.26,10.0,ENE,9.2,-,N/A,,Clear,60,2012-10-05 03:35:00
9:55 PM,36.0,22.6,58,30.26,10.0,ENE,10.4,-,N/A,,Clear,60,2012-10-05 03:55:00
10:15 PM,35.6,22.1,58,30.26,10.0,ENE,11.5,-,N/A,,Clear,70,2012-10-05 04:15:00
10:35 PM,34.7,22.1,60,30.26,10.0,ENE,10.4,-,N/A,,Clear,70,2012-10-05 04:35:00
10:55 PM,33.8,22.1,62,30.26,10.0,ENE,9.2,-,N/A,,Clear,70,2012-10-05 04:55:00
11:15 PM,32.9,22.1,65,30.27,10.0,ENE,9.2,-,N/A,,Clear,70,2012-10-05 05:15:00
11:35 PM,32.0,22.1,67,30.26,10.0,ENE,8.1,-,N/A,,Clear,70,2012-10-05 05:35:00
11:55 PM,32.0,22.1,67,30.26,10.0,ENE,8.1,-,N/A,,Clear,60,2012-10-05 05:55:00